sensor_id;sensor_type;location;lat;lon;timestamp;pressure;altitude;pressure_sealevel;temperature;humidity
47054;BME280;32811;52.382;5.270;2023-02-02T00:01:41;102104.78;;;6.25;100.00
47054;BME280;32811;52.382;5.270;2023-02-02T00:04:15;102100.38;;;6.21;100.00
47054;BME280;32811;52.382;5.270;2023-02-02T00:06:43;102117.56;;;6.23;100.00
47054;BME280;32811;52.382;5.270;2023-02-02T00:09:13;102123.50;;;6.22;100.00
47054;BME280;32811;52.382;5.270;2023-02-02T00:11:42;102124.31;;;6.21;100.00
47054;BME280;32811;52.382;5.270;2023-02-02T00:14:09;102119.09;;;6.20;100.00
47054;BME280;32811;52.382;5.270;2023-02-02T00:16:39;102125.19;;;6.22;100.00
47054;BME280;32811;52.382;5.270;2023-02-02T00:19:21;102120.94;;;6.22;100.00
47054;BME280;32811;52.382;5.270;2023-02-02T00:21:48;102104.47;;;6.17;100.00
47054;BME280;32811;52.382;5.270;2023-02-02T00:24:16;102111.31;;;6.17;100.00
47054;BME280;32811;52.382;5.270;2023-02-02T00:26:48;102107.91;;;6.18;100.00
47054;BME280;32811;52.382;5.270;2023-02-02T00:29:18;102110.47;;;6.18;100.00
47054;BME280;32811;52.382;5.270;2023-02-02T00:31:45;102110.47;;;6.18;100.00
47054;BME280;32811;52.382;5.270;2023-02-02T00:34:13;102116.28;;;6.14;100.00
47054;BME280;32811;52.382;5.270;2023-02-02T00:36:41;102112.91;;;6.15;100.00
47054;BME280;32811;52.382;5.270;2023-02-02T00:39:13;102103.41;;;6.12;100.00
47054;BME280;32811;52.382;5.270;2023-02-02T00:41:40;102101.66;;;6.11;100.00
47054;BME280;32811;52.382;5.270;2023-02-02T00:44:07;102109.28;;;6.10;100.00
47054;BME280;32811;52.382;5.270;2023-02-02T00:46:53;102122.22;;;6.13;100.00
47054;BME280;32811;52.382;5.270;2023-02-02T00:49:20;102116.91;;;6.08;100.00
47054;BME280;32811;52.382;5.270;2023-02-02T00:51:47;102122.97;;;6.10;100.00
47054;BME280;32811;52.382;5.270;2023-02-02T00:54:13;102119.78;;;6.16;100.00
47054;BME280;32811;52.382;5.270;2023-02-02T00:56:40;102120.25;;;6.07;100.00
47054;BME280;32811;52.382;5.270;2023-02-02T00:59:07;102133.50;;;6.16;100.00
47054;BME280;32811;52.382;5.270;2023-02-02T01:01:34;102122.97;;;6.10;100.00
47054;BME280;32811;52.382;5.270;2023-02-02T01:04:01;102111.31;;;6.17;100.00
47054;BME280;32811;52.382;5.270;2023-02-02T01:06:27;102107.69;;;6.12;100.00
47054;BME280;32811;52.382;5.270;2023-02-02T01:08:55;102114.34;;;6.08;100.00
47054;BME280;32811;52.382;5.270;2023-02-02T01:11:21;102113.66;;;6.12;100.00
47054;BME280;32811;52.382;5.270;2023-02-02T01:13:48;102122.16;;;6.11;100.00
47054;BME280;32811;52.382;5.270;2023-02-02T01:16:15;102118.44;;;6.05;100.00
47054;BME280;32811;52.382;5.270;2023-02-02T01:18:42;102127.03;;;6.05;100.00
47054;BME280;32811;52.382;5.270;2023-02-02T01:21:11;102125.19;;;6.02;100.00
47054;BME280;32811;52.382;5.270;2023-02-02T01:23:38;102125.19;;;6.02;100.00
47054;BME280;32811;52.382;5.270;2023-02-02T01:26:07;102133.31;;;5.94;100.00
47054;BME280;32811;52.382;5.270;2023-02-02T01:28:35;102125.19;;;5.83;100.00
47054;BME280;32811;52.382;5.270;2023-02-02T01:31:10;102122.75;;;5.86;100.00
47054;BME280;32811;52.382;5.270;2023-02-02T01:33:37;102127.78;;;5.85;100.00
47054;BME280;32811;52.382;5.270;2023-02-02T01:36:07;102122.53;;;5.81;100.00
47054;BME280;32811;52.382;5.270;2023-02-02T01:38:36;102128.34;;;5.77;100.00
47054;BME280;32811;52.382;5.270;2023-02-02T01:41:03;102129.06;;;5.75;100.00
47054;BME280;32811;52.382;5.270;2023-02-02T01:43:53;102135.94;;;5.76;100.00
47054;BME280;32811;52.382;5.270;2023-02-02T01:46:32;102139.31;;;5.75;100.00
47054;BME280;32811;52.382;5.270;2023-02-02T01:49:02;102140.16;;;5.74;100.00
47054;BME280;32811;52.382;5.270;2023-02-02T01:51:39;102133.16;;;5.71;100.00
47054;BME280;32811;52.382;5.270;2023-02-02T01:54:10;102133.25;;;5.73;100.00
47054;BME280;32811;52.382;5.270;2023-02-02T01:57:07;102135.03;;;5.74;100.00
47054;BME280;32811;52.382;5.270;2023-02-02T01:59:35;102140.06;;;5.72;100.00
47054;BME280;32811;52.382;5.270;2023-02-02T02:02:02;102136.56;;;5.70;100.00
47054;BME280;32811;52.382;5.270;2023-02-02T02:04:30;102141.75;;;5.72;100.00
47054;BME280;32811;52.382;5.270;2023-02-02T02:06:59;102141.59;;;5.69;100.00
47054;BME280;32811;52.382;5.270;2023-02-02T02:09:26;102133.91;;;5.69;100.00
47054;BME280;32811;52.382;5.270;2023-02-02T02:11:53;102132.97;;;5.67;100.00
47054;BME280;32811;52.382;5.270;2023-02-02T02:14:20;102120.53;;;5.74;100.00
47054;BME280;32811;52.382;5.270;2023-02-02T02:34:50;102105.94;;;5.73;100.00
47054;BME280;32811;52.382;5.270;2023-02-02T02:37:31;102119.91;;;5.80;100.00
47054;BME280;32811;52.382;5.270;2023-02-02T02:40:06;102121.88;;;5.86;100.00
47054;BME280;32811;52.382;5.270;2023-02-02T02:42:38;102121.91;;;5.87;100.00
47054;BME280;32811;52.382;5.270;2023-02-02T02:45:06;102117.63;;;5.86;100.00
47054;BME280;32811;52.382;5.270;2023-02-02T02:47:35;102115.34;;;5.92;100.00
47054;BME280;32811;52.382;5.270;2023-02-02T02:50:03;102118.75;;;5.93;100.00
47054;BME280;32811;52.382;5.270;2023-02-02T02:52:31;102115.25;;;5.91;100.00
47054;BME280;32811;52.382;5.270;2023-02-02T02:54:59;102112.06;;;5.95;100.00
47054;BME280;32811;52.382;5.270;2023-02-02T02:57:37;102120.69;;;5.97;100.00
47054;BME280;32811;52.382;5.270;2023-02-02T03:08:06;102143.88;;;6.00;100.00
47054;BME280;32811;52.382;5.270;2023-02-02T03:10:37;102141.19;;;5.97;100.00
47054;BME280;32811;52.382;5.270;2023-02-02T03:13:08;102145.03;;;6.07;100.00
47054;BME280;32811;52.382;5.270;2023-02-02T03:15:39;102142.41;;;6.05;100.00
47054;BME280;32811;52.382;5.270;2023-02-02T03:18:07;102132.22;;;6.07;100.00
47054;BME280;32811;52.382;5.270;2023-02-02T03:20:34;102140.84;;;6.09;100.00
47054;BME280;32811;52.382;5.270;2023-02-02T03:23:00;102136.66;;;6.11;100.00
47054;BME280;32811;52.382;5.270;2023-02-02T03:25:27;102138.56;;;6.15;100.00
47054;BME280;32811;52.382;5.270;2023-02-02T03:27:54;102131.66;;;6.14;100.00
47054;BME280;32811;52.382;5.270;2023-02-02T03:30:21;102139.53;;;6.18;100.00
47054;BME280;32811;52.382;5.270;2023-02-02T03:32:50;102133.81;;;6.24;100.00
47054;BME280;32811;52.382;5.270;2023-02-02T03:35:17;102143.47;;;6.30;100.00
47054;BME280;32811;52.382;5.270;2023-02-02T03:37:46;102131.34;;;6.26;100.00
47054;BME280;32811;52.382;5.270;2023-02-02T03:40:13;102133.16;;;6.28;100.00
47054;BME280;32811;52.382;5.270;2023-02-02T03:42:41;102132.28;;;6.28;100.00
47054;BME280;32811;52.382;5.270;2023-02-02T03:45:08;102134.88;;;6.29;100.00
47054;BME280;32811;52.382;5.270;2023-02-02T03:47:35;102126.13;;;6.24;100.00
47054;BME280;32811;52.382;5.270;2023-02-02T03:50:02;102109.81;;;6.22;100.00
47054;BME280;32811;52.382;5.270;2023-02-02T03:52:30;102121.88;;;6.24;100.00
47054;BME280;32811;52.382;5.270;2023-02-02T03:54:56;102127.66;;;6.20;100.00
47054;BME280;32811;52.382;5.270;2023-02-02T03:57:23;102110.47;;;6.18;100.00
47054;BME280;32811;52.382;5.270;2023-02-02T03:59:50;102108.06;;;6.21;100.00
47054;BME280;32811;52.382;5.270;2023-02-02T04:02:17;102110.47;;;6.18;100.00
47054;BME280;32811;52.382;5.270;2023-02-02T04:04:43;102111.50;;;6.21;100.00
47054;BME280;32811;52.382;5.270;2023-02-02T04:07:10;102102.09;;;6.22;100.00
47054;BME280;32811;52.382;5.270;2023-02-02T04:09:37;102103.59;;;6.17;100.00
47054;BME280;32811;52.382;5.270;2023-02-02T04:12:04;102116.69;;;6.23;100.00
47054;BME280;32811;52.382;5.270;2023-02-02T04:14:31;102122.69;;;6.23;100.00
47054;BME280;32811;52.382;5.270;2023-02-02T04:16:57;102115.94;;;6.26;100.00
47054;BME280;32811;52.382;5.270;2023-02-02T04:19:25;102119.69;;;6.34;100.00
47054;BME280;32811;52.382;5.270;2023-02-02T04:21:52;102121.53;;;6.36;100.00
47054;BME280;32811;52.382;5.270;2023-02-02T04:24:19;102118.03;;;6.34;100.00
47054;BME280;32811;52.382;5.270;2023-02-02T04:26:46;102124.03;;;6.35;100.00
47054;BME280;32811;52.382;5.270;2023-02-02T04:29:13;102136.09;;;6.37;100.00
47054;BME280;32811;52.382;5.270;2023-02-02T04:31:39;102126.72;;;6.38;100.00
47054;BME280;32811;52.382;5.270;2023-02-02T04:34:06;102140.63;;;6.43;100.00
47054;BME280;32811;52.382;5.270;2023-02-02T04:36:33;102132.03;;;6.42;100.00
47054;BME280;32811;52.382;5.270;2023-02-02T04:39:00;102135.53;;;6.44;100.00
47054;BME280;32811;52.382;5.270;2023-02-02T04:41:26;102141.50;;;6.43;100.00
47054;BME280;32811;52.382;5.270;2023-02-02T04:43:53;102143.13;;;6.41;100.00
47054;BME280;32811;52.382;5.270;2023-02-02T04:46:19;102136.47;;;6.47;100.00
47054;BME280;32811;52.382;5.270;2023-02-02T04:48:49;102142.44;;;6.46;100.00
47054;BME280;32811;52.382;5.270;2023-02-02T04:51:16;102128.78;;;6.47;100.00
47054;BME280;32811;52.382;5.270;2023-02-02T04:53:44;102128.78;;;6.47;100.00
47054;BME280;32811;52.382;5.270;2023-02-02T04:56:16;102139.88;;;6.46;100.00
47054;BME280;32811;52.382;5.270;2023-02-02T04:58:44;102135.69;;;6.48;100.00
47054;BME280;32811;52.382;5.270;2023-02-02T05:01:17;102134.03;;;6.50;100.00
47054;BME280;32811;52.382;5.270;2023-02-02T05:03:45;102139.22;;;6.51;100.00
47054;BME280;32811;52.382;5.270;2023-02-02T05:06:13;102143.50;;;6.51;100.00
47054;BME280;32811;52.382;5.270;2023-02-02T05:08:41;102132.03;;;6.42;100.00
47054;BME280;32811;52.382;5.270;2023-02-02T05:11:13;102137.16;;;6.42;100.00
47054;BME280;32811;52.382;5.270;2023-02-02T05:13:44;102136.41;;;6.45;100.00
47054;BME280;32811;52.382;5.270;2023-02-02T05:16:12;102143.50;;;6.51;100.00
47054;BME280;32811;52.382;5.270;2023-02-02T05:18:40;102145.38;;;6.55;100.00
47054;BME280;32811;52.382;5.270;2023-02-02T05:21:07;102139.38;;;6.54;100.00
47054;BME280;32811;52.382;5.270;2023-02-02T05:23:34;102135.13;;;6.55;100.00
47054;BME280;32811;52.382;5.270;2023-02-02T05:26:02;102144.72;;;6.59;100.00
47054;BME280;32811;52.382;5.270;2023-02-02T05:28:29;102145.38;;;6.55;100.00
47054;BME280;32811;52.382;5.270;2023-02-02T05:30:56;102141.72;;;6.50;100.00
47054;BME280;32811;52.382;5.270;2023-02-02T05:33:23;102152.06;;;6.51;100.00
47054;BME280;32811;52.382;5.270;2023-02-02T05:35:50;102155.50;;;6.52;100.00
47054;BME280;32811;52.382;5.270;2023-02-02T05:38:18;102154.63;;;6.51;100.00
47054;BME280;32811;52.382;5.270;2023-02-02T05:40:47;102147.81;;;6.52;100.00
47054;BME280;32811;52.382;5.270;2023-02-02T05:43:14;102151.38;;;6.55;100.00
47054;BME280;32811;52.382;5.270;2023-02-02T05:45:41;102158.31;;;6.58;100.00
47054;BME280;32811;52.382;5.270;2023-02-02T05:48:12;102152.88;;;6.50;100.00
47054;BME280;32811;52.382;5.270;2023-02-02T05:50:41;102163.00;;;6.47;100.00
47054;BME280;32811;52.382;5.270;2023-02-02T05:53:09;102164.56;;;6.43;100.00
47054;BME280;32811;52.382;5.270;2023-02-02T05:55:38;102167.44;;;6.51;100.00
47054;BME280;32811;52.382;5.270;2023-02-02T05:58:05;102162.47;;;6.54;100.00
47054;BME280;32811;52.382;5.270;2023-02-02T06:00:32;102163.19;;;6.52;100.00
47054;BME280;32811;52.382;5.270;2023-02-02T06:02:59;102169.22;;;6.52;100.00
47054;BME280;32811;52.382;5.270;2023-02-02T06:05:26;102164.97;;;6.53;100.00
47054;BME280;32811;52.382;5.270;2023-02-02T06:07:53;102162.13;;;6.47;100.00
47054;BME280;32811;52.382;5.270;2023-02-02T06:10:20;102166.47;;;6.48;100.00
47054;BME280;32811;52.382;5.270;2023-02-02T06:12:47;102170.66;;;6.46;100.00
47054;BME280;32811;52.382;5.270;2023-02-02T06:15:13;102167.13;;;6.43;100.00
47054;BME280;32811;52.382;5.270;2023-02-02T06:17:40;102170.47;;;6.41;100.00
47054;BME280;32811;52.382;5.270;2023-02-02T06:20:08;102181.59;;;6.41;100.00
47054;BME280;32811;52.382;5.270;2023-02-02T06:22:35;102171.91;;;6.36;100.00
47054;BME280;32811;52.382;5.270;2023-02-02T06:25:03;102188.34;;;6.39;100.00
47054;BME280;32811;52.382;5.270;2023-02-02T06:27:30;102181.97;;;6.31;100.00
47054;BME280;32811;52.382;5.270;2023-02-02T06:29:57;102190.69;;;6.35;100.00
47054;BME280;32811;52.382;5.270;2023-02-02T06:32:27;102186.50;;;6.37;100.00
47054;BME280;32811;52.382;5.270;2023-02-02T06:34:55;102192.25;;;6.31;100.00
47054;BME280;32811;52.382;5.270;2023-02-02T06:37:21;102202.91;;;6.40;100.00
47054;BME280;32811;52.382;5.270;2023-02-02T06:39:48;102202.97;;;6.42;100.00
47054;BME280;32811;52.382;5.270;2023-02-02T06:42:15;102207.91;;;6.37;100.00
47054;BME280;32811;52.382;5.270;2023-02-02T06:44:47;102214.56;;;6.34;100.00
47054;BME280;32811;52.382;5.270;2023-02-02T06:47:15;102217.09;;;6.32;100.00
47054;BME280;32811;52.382;5.270;2023-02-02T06:49:42;102217.97;;;6.33;100.00
47054;BME280;32811;52.382;5.270;2023-02-02T06:52:09;102223.88;;;6.32;100.00
47054;BME280;32811;52.382;5.270;2023-02-02T06:54:36;102216.34;;;6.35;100.00
47054;BME280;32811;52.382;5.270;2023-02-02T06:57:03;102220.66;;;6.36;100.00
47054;BME280;32811;52.382;5.270;2023-02-02T06:59:30;102212.84;;;6.33;100.00
47054;BME280;32811;52.382;5.270;2023-02-02T07:01:57;102212.00;;;6.34;100.00
47054;BME280;32811;52.382;5.270;2023-02-02T07:04:24;102216.41;;;6.36;100.00
47054;BME280;32811;52.382;5.270;2023-02-02T07:06:51;102201.50;;;6.28;100.00
47054;BME280;32811;52.382;5.270;2023-02-02T07:09:18;102224.69;;;6.31;100.00
47054;BME280;32811;52.382;5.270;2023-02-02T07:11:44;102214.13;;;6.23;100.00
47054;BME280;32811;52.382;5.270;2023-02-02T07:14:12;102219.28;;;6.24;100.00
47054;BME280;32811;52.382;5.270;2023-02-02T07:16:39;102222.81;;;6.27;100.00
47054;BME280;32811;52.382;5.270;2023-02-02T07:19:06;102231.56;;;6.32;100.00
47054;BME280;32811;52.382;5.270;2023-02-02T07:21:32;102238.34;;;6.30;100.00
47054;BME280;32811;52.382;5.270;2023-02-02T07:24:03;102233.94;;;6.27;100.00
47054;BME280;32811;52.382;5.270;2023-02-02T07:26:30;102232.88;;;6.22;100.00
47054;BME280;32811;52.382;5.270;2023-02-02T07:28:57;102238.19;;;6.27;100.00
47054;BME280;32811;52.382;5.270;2023-02-02T07:31:25;102233.72;;;6.22;100.00
47054;BME280;32811;52.382;5.270;2023-02-02T07:33:53;102248.31;;;6.23;100.00
47054;BME280;32811;52.382;5.270;2023-02-02T07:36:21;102250.13;;;6.26;100.00
47054;BME280;32811;52.382;5.270;2023-02-02T07:38:51;102246.72;;;6.26;100.00
47054;BME280;32811;52.382;5.270;2023-02-02T07:41:23;102255.16;;;6.23;100.00
47054;BME280;32811;52.382;5.270;2023-02-02T07:43:50;102261.34;;;6.28;100.00
47054;BME280;32811;52.382;5.270;2023-02-02T07:46:18;102260.47;;;6.28;100.00
47054;BME280;32811;52.382;5.270;2023-02-02T07:48:45;102274.38;;;6.33;100.00
47054;BME280;32811;52.382;5.270;2023-02-02T07:51:15;102267.44;;;6.30;100.00
47054;BME280;32811;52.382;5.270;2023-02-02T07:53:46;102268.28;;;6.31;100.00
47054;BME280;32811;52.382;5.270;2023-02-02T07:56:16;102272.56;;;6.30;100.00
47054;BME280;32811;52.382;5.270;2023-02-02T07:58:43;102268.63;;;6.38;100.00
47054;BME280;32811;52.382;5.270;2023-02-02T08:01:13;102264.19;;;6.34;100.00
47054;BME280;32811;52.382;5.270;2023-02-02T08:03:41;102254.81;;;6.35;100.00
47054;BME280;32811;52.382;5.270;2023-02-02T08:06:10;102274.56;;;6.37;100.00
47054;BME280;32811;52.382;5.270;2023-02-02T08:08:37;102259.38;;;6.42;100.00
47054;BME280;32811;52.382;5.270;2023-02-02T08:11:07;102274.69;;;6.40;100.00
47054;BME280;32811;52.382;5.270;2023-02-02T08:13:34;102272.28;;;6.43;100.00
47054;BME280;32811;52.382;5.270;2023-02-02T08:16:01;102282.00;;;6.51;100.00
47054;BME280;32811;52.382;5.270;2023-02-02T08:18:28;102280.78;;;6.42;100.00
47054;BME280;32811;52.382;5.270;2023-02-02T08:21:03;102285.03;;;6.42;100.00
47054;BME280;32811;52.382;5.270;2023-02-02T08:23:30;102281.88;;;6.48;100.00
47054;BME280;32811;52.382;5.270;2023-02-02T08:26:20;102301.03;;;6.56;100.00
47054;BME280;32811;52.382;5.270;2023-02-02T08:28:51;102294.91;;;6.52;100.00
47054;BME280;32811;52.382;5.270;2023-02-02T08:31:21;102284.56;;;6.51;100.00
47054;BME280;32811;52.382;5.270;2023-02-02T08:33:50;102296.56;;;6.52;100.00
47054;BME280;32811;52.382;5.270;2023-02-02T08:36:19;102301.19;;;6.59;100.00
47054;BME280;32811;52.382;5.270;2023-02-02T08:38:47;102298.00;;;6.64;100.00
47054;BME280;32811;52.382;5.270;2023-02-02T08:41:15;102290.47;;;6.68;100.00
47054;BME280;32811;52.382;5.270;2023-02-02T08:43:42;102301.91;;;6.76;100.00
47054;BME280;32811;52.382;5.270;2023-02-02T08:46:11;102302.78;;;6.76;100.00
47054;BME280;32811;52.382;5.270;2023-02-02T08:48:40;102297.59;;;6.75;100.00
47054;BME280;32811;52.382;5.270;2023-02-02T08:51:09;102305.50;;;6.79;100.00
47054;BME280;32811;52.382;5.270;2023-02-02T08:53:37;102301.88;;;6.74;100.00
47054;BME280;32811;52.382;5.270;2023-02-02T08:56:18;102310.47;;;6.76;100.00
47054;BME280;32811;52.382;5.270;2023-02-02T08:58:46;102319.66;;;6.71;100.00
47054;BME280;32811;52.382;5.270;2023-02-02T09:01:17;102316.16;;;6.69;100.00
47054;BME280;32811;52.382;5.270;2023-02-02T09:03:45;102327.16;;;6.67;100.00
47054;BME280;32811;52.382;5.270;2023-02-02T09:06:16;102333.31;;;6.70;100.00
47054;BME280;32811;52.382;5.270;2023-02-02T09:08:44;102334.41;;;6.75;100.00
47054;BME280;32811;52.382;5.270;2023-02-02T09:11:14;102340.69;;;6.82;100.00
47054;BME280;32811;52.382;5.270;2023-02-02T09:13:42;102340.13;;;6.89;100.00
47054;BME280;32811;52.382;5.270;2023-02-02T09:16:12;102340.69;;;7.01;100.00
47054;BME280;32811;52.382;5.270;2023-02-02T09:18:40;102343.16;;;7.00;100.00
47054;BME280;32811;52.382;5.270;2023-02-02T09:21:10;102346.59;;;7.00;100.00
47054;BME280;32811;52.382;5.270;2023-02-02T09:23:39;102350.75;;;6.97;100.00
47054;BME280;32811;52.382;5.270;2023-02-02T09:26:12;102358.56;;;7.00;100.00
47054;BME280;32811;52.382;5.270;2023-02-02T09:28:42;102361.22;;;7.01;100.00
47054;BME280;32811;52.382;5.270;2023-02-02T09:31:10;102353.44;;;7.00;100.00
47054;BME280;32811;52.382;5.270;2023-02-02T09:33:38;102363.81;;;7.03;100.00
47054;BME280;32811;52.382;5.270;2023-02-02T09:36:08;102348.81;;;7.12;100.00
47054;BME280;32811;52.382;5.270;2023-02-02T09:38:36;102348.13;;;7.16;100.00
47054;BME280;32811;52.382;5.270;2023-02-02T09:52:31;102359.44;;;7.20;100.00
47054;BME280;32811;52.382;5.270;2023-02-02T09:55:04;102362.94;;;7.22;100.00
47054;BME280;32811;52.382;5.270;2023-02-02T09:57:46;102364.69;;;7.23;100.00
47054;BME280;32811;52.382;5.270;2023-02-02T10:00:26;102372.53;;;7.26;100.00
47054;BME280;32811;52.382;5.270;2023-02-02T10:03:21;102377.59;;;7.24;100.00
47054;BME280;32811;52.382;5.270;2023-02-02T10:05:54;102384.34;;;7.22;100.00
47054;BME280;32811;52.382;5.270;2023-02-02T10:08:27;102379.63;;;7.12;100.00
47054;BME280;32811;52.382;5.270;2023-02-02T10:11:09;102389.38;;;7.19;100.00
47054;BME280;32811;52.382;5.270;2023-02-02T10:13:42;102382.91;;;7.08;100.00
47054;BME280;32811;52.382;5.270;2023-02-02T10:16:21;102399.09;;;7.07;100.00
47054;BME280;32811;52.382;5.270;2023-02-02T10:19:05;102393.69;;;7.01;100.00
47054;BME280;32811;52.382;5.270;2023-02-02T10:24:26;102389.66;;;7.06;100.00
47054;BME280;32811;52.382;5.270;2023-02-02T10:26:56;102401.00;;;7.11;100.00
47054;BME280;32811;52.382;5.270;2023-02-02T10:29:32;102392.63;;;7.15;100.00
47054;BME280;32811;52.382;5.270;2023-02-02T10:37:29;102410.16;;;7.25;100.00
47054;BME280;32811;52.382;5.270;2023-02-02T10:45:32;102410.16;;;7.25;100.00
47054;BME280;32811;52.382;5.270;2023-02-02T10:47:59;102404.34;;;7.30;100.00
47054;BME280;32811;52.382;5.270;2023-02-02T10:50:26;102404.31;;;7.28;100.00
47054;BME280;32811;52.382;5.270;2023-02-02T10:52:59;102403.81;;;7.37;100.00
47054;BME280;32811;52.382;5.270;2023-02-02T10:55:36;102405.56;;;7.38;100.00
47054;BME280;32811;52.382;5.270;2023-02-02T11:00:46;102402.50;;;7.46;100.00
47054;BME280;32811;52.382;5.270;2023-02-02T11:03:22;102397.44;;;7.48;100.00
47054;BME280;32811;52.382;5.270;2023-02-02T11:05:51;102400.03;;;7.48;100.00
47054;BME280;32811;52.382;5.270;2023-02-02T11:08:41;102404.81;;;7.40;100.00
47054;BME280;32811;52.382;5.270;2023-02-02T11:13:49;102411.78;;;7.43;100.00
47054;BME280;32811;52.382;5.270;2023-02-02T11:16:19;102403.94;;;7.40;100.00
47054;BME280;32811;52.382;5.270;2023-02-02T11:18:47;102396.13;;;7.37;100.00
47054;BME280;32811;52.382;5.270;2023-02-02T11:21:32;102407.50;;;7.43;100.00
47054;BME280;32811;52.382;5.270;2023-02-02T11:26:47;102404.75;;;7.39;100.00
47054;BME280;32811;52.382;5.270;2023-02-02T11:32:38;102407.56;;;7.45;100.00
47054;BME280;32811;52.382;5.270;2023-02-02T11:35:16;102404.25;;;7.47;100.00
47054;BME280;32811;52.382;5.270;2023-02-02T11:40:25;102407.00;;;7.52;100.00
47054;BME280;32811;52.382;5.270;2023-02-02T11:42:55;102409.53;;;7.51;100.00
47054;BME280;32811;52.382;5.270;2023-02-02T11:45:33;102407.84;;;7.51;100.00
47054;BME280;32811;52.382;5.270;2023-02-02T11:48:13;102402.72;;;7.51;100.00
47054;BME280;32811;52.382;5.270;2023-02-02T11:50:52;102393.78;;;7.43;100.00
47054;BME280;32811;52.382;5.270;2023-02-02T11:56:09;102397.97;;;7.41;100.00
47054;BME280;32811;52.382;5.270;2023-02-02T11:58:45;102406.78;;;7.46;100.00
47054;BME280;32811;52.382;5.270;2023-02-02T12:01:34;102398.94;;;7.43;100.00
47054;BME280;32811;52.382;5.270;2023-02-02T12:04:20;102397.63;;;7.53;100.00
47054;BME280;32811;52.382;5.270;2023-02-02T12:06:49;102400.13;;;7.51;100.00
47054;BME280;32811;52.382;5.270;2023-02-02T12:09:18;102404.59;;;7.55;100.00
47054;BME280;32811;52.382;5.270;2023-02-02T12:17:36;102389.41;;;7.40;100.00
47054;BME280;32811;52.382;5.270;2023-02-02T12:20:30;102384.59;;;7.48;100.00
47054;BME280;32811;52.382;5.270;2023-02-02T12:28:58;102373.88;;;7.37;100.00
47054;BME280;32811;52.382;5.270;2023-02-02T12:34:56;102392.03;;;7.42;100.00
47054;BME280;32811;52.382;5.270;2023-02-02T12:37:31;102386.91;;;7.42;100.00
47054;BME280;32811;52.382;5.270;2023-02-02T12:45:25;102385.41;;;7.47;100.00
47054;BME280;32811;52.382;5.270;2023-02-02T12:48:28;102385.22;;;7.42;100.00
47054;BME280;32811;52.382;5.270;2023-02-02T12:51:21;102381.78;;;7.42;100.00
47054;BME280;32811;52.382;5.270;2023-02-02T12:54:32;102378.25;;;7.40;100.00
47054;BME280;32811;52.382;5.270;2023-02-02T13:08:05;102372.16;;;7.38;100.00
47054;BME280;32811;52.382;5.270;2023-02-02T13:10:38;102376.47;;;7.39;100.00
47054;BME280;32811;52.382;5.270;2023-02-02T13:13:13;102379.19;;;7.42;100.00
47054;BME280;32811;52.382;5.270;2023-02-02T13:15:47;102386.63;;;7.36;100.00
47054;BME280;32811;52.382;5.270;2023-02-02T13:21:06;102384.94;;;7.36;100.00
47054;BME280;32811;52.382;5.270;2023-02-02T13:23:42;102382.19;;;7.32;100.00
47054;BME280;32811;52.382;5.270;2023-02-02T13:26:24;102396.16;;;7.38;100.00
47054;BME280;32811;52.382;5.270;2023-02-02T13:28:58;102385.00;;;7.38;100.00
47054;BME280;32811;52.382;5.270;2023-02-02T13:34:21;102369.59;;;7.17;100.00
47054;BME280;32811;52.382;5.270;2023-02-02T13:40:00;102391.13;;;7.20;100.00
47054;BME280;32811;52.382;5.270;2023-02-02T13:42:38;102389.22;;;7.16;100.00
47054;BME280;32811;52.382;5.270;2023-02-02T13:47:48;102382.19;;;7.12;100.00
47054;BME280;32811;52.382;5.270;2023-02-02T13:50:20;102402.88;;;7.15;100.00
47054;BME280;32811;52.382;5.270;2023-02-02T13:53:17;102385.50;;;7.10;100.00
47054;BME280;32811;52.382;5.270;2023-02-02T13:58:36;102398.34;;;7.10;100.00
47054;BME280;32811;52.382;5.270;2023-02-02T14:01:09;102394.78;;;7.06;100.00
47054;BME280;32811;52.382;5.270;2023-02-02T14:03:42;102405.94;;;7.06;100.00
47054;BME280;32811;52.382;5.270;2023-02-02T14:06:16;102407.47;;;7.03;100.00
47054;BME280;32811;52.382;5.270;2023-02-02T14:08:58;102396.22;;;6.99;100.00
47054;BME280;32811;52.382;5.270;2023-02-02T14:11:29;102408.16;;;6.99;100.00
47054;BME280;32811;52.382;5.270;2023-02-02T14:14:15;102403.75;;;6.96;100.00
47054;BME280;32811;52.382;5.270;2023-02-02T14:20:02;102419.22;;;6.98;100.00
47054;BME280;32811;52.382;5.270;2023-02-02T14:22:47;102407.22;;;6.97;100.00
47054;BME280;32811;52.382;5.270;2023-02-02T14:28:00;102413.97;;;6.95;100.00
47054;BME280;32811;52.382;5.270;2023-02-02T14:30:33;102411.31;;;6.93;100.00
47054;BME280;32811;52.382;5.270;2023-02-02T14:38:33;102414.03;;;6.96;100.00
47054;BME280;32811;52.382;5.270;2023-02-02T14:42:07;102426.06;;;6.97;100.00
47054;BME280;32811;52.382;5.270;2023-02-02T14:45:04;102429.63;;;7.01;100.00
47054;BME280;32811;52.382;5.270;2023-02-02T14:50:32;102428.47;;;6.94;100.00
47054;BME280;32811;52.382;5.270;2023-02-02T14:53:06;102432.00;;;6.96;100.00
47054;BME280;32811;52.382;5.270;2023-02-02T14:56:17;102423.34;;;6.94;100.00
47054;BME280;32811;52.382;5.270;2023-02-02T14:58:45;102436.25;;;6.96;100.00
47054;BME280;32811;52.382;5.270;2023-02-02T15:06:33;102448.28;;;6.97;100.00
47054;BME280;32811;52.382;5.270;2023-02-02T15:14:35;102443.84;;;6.93;100.00
47054;BME280;32811;52.382;5.270;2023-02-02T15:17:06;102449.75;;;6.92;100.00
47054;BME280;32811;52.382;5.270;2023-02-02T15:19:41;102437.00;;;6.93;100.00
47054;BME280;32811;52.382;5.270;2023-02-02T15:24:58;102443.88;;;6.94;100.00
47054;BME280;32811;52.382;5.270;2023-02-02T15:27:28;102453.28;;;6.94;100.00
47054;BME280;32811;52.382;5.270;2023-02-02T15:30:02;102453.22;;;6.92;100.00
47054;BME280;32811;52.382;5.270;2023-02-02T15:32:30;102460.09;;;6.93;100.00